KSEM/SEM METAR and TAF weather

Enter ICAO airport designator
Station Type Date Time Source
KSEM METAR 2018/12/10 12:55 UTC NOAA

KSEM 101255Z AUTO 28006KT 9SM SCT008 BKN013 OVC022 04/02 A3017 RMK AO2


Station Type Date Time Source
KSEM Decoded METAR 2018/12/10 12:55 UTC NOAA

Craig Field / Selma, AL, United States (KSEM) 32-21N 086-59W
Dec 10, 2018 - 07:55 AM EST / 2018.12.10 1255 UTC
Wind: from the W (280 degrees) at 7 MPH (6 KT):0
Visibility: 9 mile(s):0
Sky conditions: overcast
Temperature: 39 F (4 C)
Dew Point: 35 F (2 C)
Relative Humidity: 86%
Pressure (altimeter): 30.17 in. Hg (1021 hPa)
ob: KSEM 101255Z AUTO 28006KT 9SM SCT008 BKN013 OVC022 04/02 A3017 RMK AO2
cycle: 13

Station Type Date Time Source
KSEM TAF UTC NOAA

Error!


Example: see airport list